Time;durP1;ratioP1;P1;durP2;ratioP2;P2;SDS_P1;SDS_P2;PMS_P1;PMS_P2;Temp;Humidity;BMP_temperature;BMP_pressure;BME280_temperature;BME280_humidity;BME280_pressure;Samples;Min_cycle;Max_cycle;Signal;HPM_P1;HPM_P2
2023/04/09 00:01:47;;;;;;;11.20;9.50;;;;;;;19.28;42.75;102468.50;5001346;28;20530;-70
2023/04/09 00:04:12;;;;;;;11.47;10.07;;;;;;;19.27;42.64;102465.97;4994754;28;20109;-71
2023/04/09 00:06:38;;;;;;;12.35;10.10;;;;;;;19.24;42.74;102464.34;4984639;28;20683;-69
2023/04/09 00:09:03;;;;;;;12.93;10.50;;;;;;;19.26;42.66;102466.88;4995435;28;20449;-69
2023/04/09 00:11:28;;;;;;;12.20;10.13;;;;;;;19.26;42.73;102467.72;5003156;28;20029;-68
2023/04/09 00:13:54;;;;;;;12.38;10.48;;;;;;;19.24;42.77;102466.16;4991711;28;20045;-72
2023/04/09 00:16:19;;;;;;;13.35;11.07;;;;;;;19.24;42.83;102460.84;4998632;28;20038;-70
2023/04/09 00:18:44;;;;;;;11.82;10.40;;;;;;;19.24;42.73;102463.50;4983862;28;20061;-70
2023/04/09 00:21:10;;;;;;;12.20;10.90;;;;;;;19.23;42.54;102461.78;5000524;28;20049;-72
2023/04/09 00:23:35;;;;;;;13.18;11.27;;;;;;;19.22;42.83;102458.31;4998463;28;20911;-69
2023/04/09 00:26:00;;;;;;;13.13;10.77;;;;;;;19.19;42.73;102453.19;4996187;28;20112;-69
2023/04/09 00:28:25;;;;;;;14.15;11.48;;;;;;;19.20;42.75;102455.75;4988061;28;20050;-70
2023/04/09 00:30:51;;;;;;;13.10;10.77;;;;;;;19.18;42.49;102452.38;4979109;28;21013;-70
2023/04/09 00:33:16;;;;;;;15.13;10.68;;;;;;;19.19;42.64;102451.41;4991184;28;20030;-71
2023/04/09 00:35:42;;;;;;;12.65;10.77;;;;;;;19.16;42.66;102448.94;4996179;28;20034;-71
2023/04/09 00:38:07;;;;;;;12.70;10.97;;;;;;;19.17;42.57;102448.00;4984982;28;20038;-69
2023/04/09 00:40:32;;;;;;;12.82;11.05;;;;;;;19.16;42.74;102446.28;4989079;28;20354;-72
2023/04/09 00:42:57;;;;;;;12.80;11.20;;;;;;;19.15;42.80;102452.53;4988778;28;20038;-69
2023/04/09 00:45:23;;;;;;;13.13;10.97;;;;;;;19.16;42.57;102456.03;4989955;28;20445;-69
2023/04/09 00:47:48;;;;;;;13.13;11.27;;;;;;;19.14;42.47;102447.34;4998021;28;20318;-70
2023/04/09 00:50:15;;;;;;;12.95;10.95;;;;;;;19.14;42.66;102450.00;4984029;28;20038;-68
2023/04/09 00:52:41;;;;;;;11.85;10.52;;;;;;;19.13;42.75;102445.63;4992170;28;20045;-70
2023/04/09 00:55:08;;;;;;;12.52;10.68;;;;;;;19.12;42.69;102441.28;4992323;28;20034;-70
2023/04/09 00:57:34;;;;;;;12.23;10.85;;;;;;;19.11;42.64;102452.81;4983447;28;20121;-70
2023/04/09 01:00:00;;;;;;;12.13;10.75;;;;;;;19.12;42.45;102443.94;4994054;28;20590;-69
2023/04/09 01:02:27;;;;;;;12.05;10.73;;;;;;;19.05;42.62;102437.34;4994677;28;20038;-70
2023/04/09 01:04:52;;;;;;;12.77;11.05;;;;;;;19.09;42.64;102439.69;4986293;28;20031;-70
2023/04/09 01:07:36;;;;;;;11.32;9.93;;;;;;;19.09;42.79;102439.69;4995006;28;20473;-68
2023/04/09 01:10:35;;;;;;;11.73;10.20;;;;;;;19.08;42.70;102442.44;4971671;28;20192;-71
2023/04/09 01:13:12;;;;;;;11.93;10.00;;;;;;;19.07;42.71;102435.44;4982988;28;20065;-68
2023/04/09 01:16:04;;;;;;;11.65;10.18;;;;;;;19.06;42.64;102429.31;4993065;28;20466;-68
2023/04/09 01:18:50;;;;;;;12.02;10.35;;;;;;;19.04;42.65;102425.88;4987539;28;20043;-68
2023/04/09 01:21:19;;;;;;;12.05;9.93;;;;;;;19.04;42.57;102417.97;4983499;28;20062;-69
2023/04/09 01:24:22;;;;;;;11.00;9.50;;;;;;;19.06;42.63;102428.44;4995129;28;20034;-69
2023/04/09 01:27:04;;;;;;;11.68;10.07;;;;;;;19.05;42.72;102427.59;4994153;28;20038;-69
2023/04/09 01:29:33;;;;;;;12.43;10.35;;;;;;;19.03;42.78;102416.28;4982948;28;20034;-70
2023/04/09 01:32:01;;;;;;;12.00;10.50;;;;;;;19.00;42.61;102421.75;4999405;28;20088;-73
2023/04/09 01:34:28;;;;;;;12.38;10.38;;;;;;;18.94;42.57;102415.03;5001669;28;20073;-68
2023/04/09 01:36:59;;;;;;;12.73;10.55;;;;;;;18.98;42.57;102421.84;5001627;28;20034;-69
2023/04/09 01:39:26;;;;;;;12.55;10.70;;;;;;;19.00;42.61;102425.22;4983407;28;20041;-69
2023/04/09 01:41:52;;;;;;;11.20;10.00;;;;;;;19.02;42.60;102427.78;4998946;28;20042;-68
2023/04/09 01:44:18;;;;;;;11.25;9.77;;;;;;;18.98;42.70;102424.47;4992227;28;20022;-69
2023/04/09 01:46:46;;;;;;;11.85;9.80;;;;;;;18.98;42.71;102421.00;4995405;28;20058;-69
2023/04/09 01:49:12;;;;;;;11.38;10.05;;;;;;;18.98;42.61;102421.00;4979898;28;20033;-71
2023/04/09 01:51:37;;;;;;;11.07;9.57;;;;;;;18.96;42.68;102414.94;5001203;28;20124;-69
2023/04/09 01:54:03;;;;;;;11.70;10.07;;;;;;;18.97;42.57;102419.28;4978221;28;20038;-69
2023/04/09 01:56:42;;;;;;;11.27;9.65;;;;;;;18.95;42.63;102421.19;4997006;28;20725;-69
2023/04/09 01:59:08;;;;;;;11.60;10.20;;;;;;;18.95;42.64;102418.53;4986817;28;20027;-69
2023/04/09 02:01:53;;;;;;;12.32;9.82;;;;;;;18.95;42.78;102418.53;4974722;28;20037;-72
2023/04/09 02:04:25;;;;;;;11.55;10.10;;;;;;;18.95;42.70;102421.19;4991450;28;20485;-71
2023/04/09 02:07:08;;;;;;;11.80;10.48;;;;;;;18.93;42.87;102410.72;4995234;28;20041;-71
2023/04/09 02:09:36;;;;;;;11.38;9.73;;;;;;;18.92;42.42;102416.09;4991727;28;20042;-69
2023/04/09 02:12:05;;;;;;;11.93;10.15;;;;;;;18.91;42.50;102419.66;4996152;28;20489;-72
2023/04/09 02:14:32;;;;;;;11.57;10.20;;;;;;;18.93;42.58;102412.47;4981880;28;20038;-68
2023/04/09 02:16:58;;;;;;;11.13;9.75;;;;;;;18.91;42.88;102411.72;4993327;28;20116;-69
2023/04/09 02:19:23;;;;;;;11.95;10.57;;;;;;;18.90;42.80;102410.03;4981871;28;20982;-68
2023/04/09 02:21:49;;;;;;;11.80;10.25;;;;;;;18.91;42.80;102409.94;4981487;28;20050;-68
2023/04/09 02:24:14;;;;;;;11.90;9.93;;;;;;;18.89;42.65;102403.06;4991950;28;20099;-72
2023/04/09 02:26:39;;;;;;;12.43;10.57;;;;;;;18.92;42.60;102405.50;4990371;28;20040;-69
2023/04/09 02:29:04;;;;;;;13.48;11.07;;;;;;;18.87;42.46;102402.28;4981941;28;20034;-72
2023/04/09 02:31:30;;;;;;;13.55;10.80;;;;;;;18.88;42.74;102404.81;4984369;28;20058;-70
2023/04/09 02:33:55;;;;;;;12.32;9.95;;;;;;;18.89;42.85;102406.53;4996416;28;20300;-71
2023/04/09 02:36:20;;;;;;;12.48;10.43;;;;;;;18.89;42.78;102413.63;4990289;28;20470;-69
2023/04/09 02:38:45;;;;;;;12.73;10.48;;;;;;;18.85;42.66;102405.88;4997851;28;20060;-72
2023/04/09 02:41:11;;;;;;;11.57;10.05;;;;;;;18.86;42.78;102401.44;4993878;28;20458;-69
2023/04/09 02:43:36;;;;;;;11.77;10.40;;;;;;;18.84;42.60;102404.16;4994887;28;20169;-71
2023/04/09 02:46:02;;;;;;;13.82;10.95;;;;;;;18.87;42.74;102408.44;4990674;28;20120;-67
2023/04/09 02:48:27;;;;;;;13.85;11.10;;;;;;;18.87;42.50;102403.16;4984423;28;20153;-69
2023/04/09 02:50:52;;;;;;;13.88;10.98;;;;;;;18.84;42.71;102398.88;4986597;28;20041;-70
2023/04/09 02:53:20;;;;;;;12.50;10.70;;;;;;;18.84;42.82;102392.75;5000328;28;20034;-69
2023/04/09 02:55:45;;;;;;;14.38;10.82;;;;;;;18.84;42.61;102398.03;4983788;28;20026;-70
2023/04/09 02:58:10;;;;;;;12.90;10.73;;;;;;;18.87;42.67;102399.63;4981670;28;20036;-71
2023/04/09 03:00:36;;;;;;;12.57;11.20;;;;;;;18.83;42.69;102394.53;4989100;28;20103;-71
2023/04/09 03:03:01;;;;;;;12.65;10.65;;;;;;;18.85;42.56;102400.59;5000715;28;20036;-70
2023/04/09 03:05:26;;;;;;;12.55;10.63;;;;;;;18.83;42.99;102398.94;4987140;28;20112;-69
2023/04/09 03:07:52;;;;;;;13.68;11.43;;;;;;;18.82;42.70;102384.06;4984797;28;20040;-70
2023/04/09 03:10:18;;;;;;;13.32;10.77;;;;;;;18.83;42.78;102388.38;4991823;28;20467;-68
2023/04/09 03:12:43;;;;;;;13.05;11.15;;;;;;;18.80;42.61;102388.56;4981565;28;20058;-72
2023/04/09 03:15:09;;;;;;;14.93;11.45;;;;;;;18.82;42.55;102384.91;4991973;28;20065;-72
2023/04/09 03:17:35;;;;;;;13.15;11.43;;;;;;;18.80;42.64;102381.50;4988420;28;20791;-72
2023/04/09 03:20:00;;;;;;;14.38;11.52;;;;;;;18.81;42.79;102385.00;4989943;28;20034;-69
2023/04/09 03:22:25;;;;;;;13.50;10.95;;;;;;;18.80;42.54;102389.44;4994501;28;20052;-70
2023/04/09 03:24:51;;;;;;;12.37;11.03;;;;;;;18.78;42.65;102382.53;5003901;28;20030;-71
2023/04/09 03:27:16;;;;;;;14.02;11.23;;;;;;;18.78;42.81;102378.09;5004099;28;20943;-68
2023/04/09 03:29:41;;;;;;;13.07;10.98;;;;;;;18.79;42.70;102378.97;4990462;28;20037;-69
2023/04/09 03:32:06;;;;;;;13.90;11.18;;;;;;;18.78;42.67;102378.09;4984651;28;20145;-70
2023/04/09 03:34:32;;;;;;;12.10;10.68;;;;;;;18.78;42.71;102379.88;4985271;28;20034;-70
2023/04/09 03:36:57;;;;;;;13.25;10.93;;;;;;;18.76;42.85;102372.06;4982934;28;20041;-71
2023/04/09 03:39:22;;;;;;;13.53;11.50;;;;;;;18.79;42.80;102376.31;5004908;28;20121;-69
2023/04/09 03:41:47;;;;;;;12.27;10.45;;;;;;;18.77;42.75;102372.91;4995323;28;20711;-70
2023/04/09 03:44:13;;;;;;;13.20;10.98;;;;;;;18.78;42.72;102374.59;4967906;28;20037;-69
2023/04/09 03:46:38;;;;;;;13.68;11.00;;;;;;;18.77;42.67;102378.19;4989820;28;20089;-68
2023/04/09 03:49:03;;;;;;;14.15;11.48;;;;;;;18.75;42.63;102370.34;4989889;28;20065;-69
2023/04/09 03:51:29;;;;;;;15.05;11.05;;;;;;;18.78;42.83;102369.31;4990827;28;20021;-69
2023/04/09 03:53:54;;;;;;;13.73;11.10;;;;;;;18.76;42.60;102372.06;4992244;28;20041;-68
2023/04/09 03:56:20;;;;;;;14.18;11.50;;;;;;;18.74;42.61;102366.03;4979010;28;20273;-71
2023/04/09 03:58:47;;;;;;;14.02;12.00;;;;;;;18.76;42.77;102371.22;5000017;28;20033;-68
2023/04/09 04:01:12;;;;;;;13.70;11.38;;;;;;;18.75;42.62;102369.50;4993443;28;20049;-68
2023/04/09 04:03:37;;;;;;;13.23;11.50;;;;;;;18.74;42.86;102368.66;4998090;28;20042;-68
2023/04/09 04:06:03;;;;;;;13.68;11.25;;;;;;;18.75;42.80;102372.97;4993854;28;20266;-71
2023/04/09 04:08:28;;;;;;;14.43;11.52;;;;;;;18.75;42.70;102372.16;4972221;28;20034;-69
2023/04/09 04:10:54;;;;;;;14.13;11.25;;;;;;;18.73;42.50;102366.94;5002046;28;20037;-70
2023/04/09 04:13:19;;;;;;;14.02;11.63;;;;;;;18.76;42.79;102373.84;4988649;28;20042;-69
2023/04/09 04:15:45;;;;;;;14.98;12.52;;;;;;;18.72;42.50;102372.31;4998658;28;20026;-71
2023/04/09 04:18:10;;;;;;;13.68;11.45;;;;;;;18.74;42.71;102379.22;4973687;28;20092;-72
2023/04/09 04:20:37;;;;;;;15.30;13.02;;;;;;;18.74;42.61;102384.50;4974368;28;20141;-69
2023/04/09 04:23:03;;;;;;;13.52;11.23;;;;;;;18.73;42.54;102374.88;4993952;28;20764;-69
2023/04/09 04:25:28;;;;;;;14.23;12.27;;;;;;;18.66;42.48;102360.34;4974185;28;20036;-72
2023/04/09 04:27:54;;;;;;;14.32;12.40;;;;;;;18.71;42.46;102365.34;4994709;28;20032;-70
2023/04/09 04:30:20;;;;;;;14.57;12.35;;;;;;;18.72;42.42;102364.41;4993056;28;20437;-71
2023/04/09 04:32:46;;;;;;;14.57;12.13;;;;;;;18.71;42.48;102362.69;4995000;28;20033;-69
2023/04/09 04:35:11;;;;;;;14.60;12.10;;;;;;;18.69;42.36;102354.88;4994161;28;20091;-72
2023/04/09 04:37:36;;;;;;;14.70;11.70;;;;;;;18.70;42.25;102361.84;4997580;28;20092;-69
2023/04/09 04:40:04;;;;;;;14.82;12.43;;;;;;;18.69;42.52;102362.78;4988601;28;20045;-68
2023/04/09 04:42:29;;;;;;;13.90;11.35;;;;;;;18.71;42.43;102365.34;4986912;28;20042;-69
2023/04/09 04:44:54;;;;;;;14.45;12.10;;;;;;;18.70;42.57;102366.28;4989309;28;20105;-71
2023/04/09 04:47:20;;;;;;;15.57;12.43;;;;;;;18.70;42.41;102367.13;4987958;28;20127;-73
2023/04/09 04:49:45;;;;;;;14.88;12.02;;;;;;;18.70;42.25;102375.06;4990087;28;20052;-72
2023/04/09 04:52:10;;;;;;;12.73;11.00;;;;;;;18.69;42.39;102368.06;4986538;28;20038;-70
2023/04/09 04:54:35;;;;;;;15.07;12.18;;;;;;;18.68;42.32;102369.03;4994450;28;20282;-67
2023/04/09 04:57:01;;;;;;;14.75;12.23;;;;;;;18.70;42.29;102374.22;4974741;28;20066;-71
2023/04/09 04:59:27;;;;;;;13.07;11.27;;;;;;;18.65;42.33;102364.75;4975974;28;20041;-70
2023/04/09 05:01:52;;;;;;;15.38;11.32;;;;;;;18.65;42.46;102372.69;4991957;28;20053;-69
2023/04/09 05:04:17;;;;;;;14.90;11.73;;;;;;;18.64;42.32;102376.28;4984561;28;20044;-68
2023/04/09 05:06:42;;;;;;;14.70;11.23;;;;;;;18.65;42.38;102374.50;4983103;28;20260;-70
2023/04/09 05:09:08;;;;;;;13.48;10.82;;;;;;;18.63;42.22;102371.09;4982908;28;21185;-69
2023/04/09 05:11:33;;;;;;;12.88;11.18;;;;;;;18.63;42.26;102368.47;4970557;28;20491;-69
2023/04/09 05:13:58;;;;;;;13.02;10.40;;;;;;;18.62;42.34;102367.59;4989178;28;20609;-69
2023/04/09 05:16:24;;;;;;;15.27;11.77;;;;;;;18.61;42.49;102367.69;4999756;28;20034;-70
2023/04/09 05:18:49;;;;;;;13.35;10.30;;;;;;;18.60;42.46;102366.00;4989388;28;20479;-69
2023/04/09 05:21:14;;;;;;;13.57;10.68;;;;;;;18.59;42.68;102359.00;4989835;28;20046;-68
2023/04/09 05:23:40;;;;;;;13.57;10.85;;;;;;;18.61;42.63;102365.03;4987494;28;20040;-68
2023/04/09 05:26:05;;;;;;;12.98;10.30;;;;;;;18.61;42.71;102365.03;4995486;28;20112;-69
2023/04/09 05:28:32;;;;;;;11.98;9.43;;;;;;;18.63;42.75;102369.31;4989228;28;20386;-71
2023/04/09 05:30:58;;;;;;;11.30;8.95;;;;;;;18.66;42.76;102365.63;5001314;28;20482;-70
2023/04/09 05:33:23;;;;;;;11.30;9.23;;;;;;;18.69;42.78;102370.72;4999874;28;20045;-72
2023/04/09 05:35:48;;;;;;;11.90;8.82;;;;;;;18.71;42.77;102368.84;4984980;28;21076;-69
2023/04/09 05:38:13;;;;;;;11.38;9.00;;;;;;;18.73;42.76;102377.53;4984561;28;20033;-72
2023/04/09 05:40:39;;;;;;;11.07;9.02;;;;;;;18.74;42.55;102371.31;4984857;28;20042;-69
2023/04/09 05:43:04;;;;;;;11.25;8.48;;;;;;;18.77;42.54;102371.13;4970671;28;20050;-67
2023/04/09 05:45:30;;;;;;;11.63;9.05;;;;;;;18.81;42.52;102372.63;4993139;28;20145;-69
2023/04/09 05:47:55;;;;;;;10.52;8.00;;;;;;;18.82;42.65;102371.69;4990544;28;20113;-71
2023/04/09 05:50:21;;;;;;;11.57;8.68;;;;;;;18.84;42.41;102366.34;4993983;28;20060;-70
2023/04/09 05:52:46;;;;;;;11.55;8.95;;;;;;;18.88;42.46;102373.13;4989628;28;20127;-69
2023/04/09 05:55:11;;;;;;;9.82;7.90;;;;;;;18.88;42.47;102373.13;4991263;28;20382;-69
2023/04/09 05:57:37;;;;;;;10.90;8.50;;;;;;;18.91;42.49;102378.22;4990401;28;20402;-69
2023/04/09 06:00:02;;;;;;;10.63;8.40;;;;;;;18.92;42.29;102379.94;4990842;28;20045;-70
2023/04/09 06:02:28;;;;;;;10.98;8.57;;;;;;;18.95;42.43;102381.56;4992504;28;20041;-69
2023/04/09 06:04:53;;;;;;;10.85;8.10;;;;;;;18.93;42.35;102384.28;4979851;28;20109;-71
2023/04/09 06:07:18;;;;;;;9.90;7.80;;;;;;;18.96;42.26;102392.03;4982064;28;20467;-70
2023/04/09 06:09:45;;;;;;;10.48;7.97;;;;;;;18.97;42.20;102388.44;4982573;28;20038;-70
2023/04/09 06:12:11;;;;;;;10.75;8.15;;;;;;;18.96;42.00;102386.75;4982673;28;20038;-69
2023/04/09 06:14:36;;;;;;;10.57;7.78;;;;;;;18.97;42.12;102392.88;4990248;28;20038;-69
2023/04/09 06:17:02;;;;;;;10.43;8.10;;;;;;;18.99;42.11;102391.84;4997960;28;20034;-69
2023/04/09 06:19:27;;;;;;;10.02;7.90;;;;;;;18.99;42.17;102390.97;4983331;28;20430;-69
2023/04/09 06:21:52;;;;;;;10.27;7.60;;;;;;;19.00;42.05;102390.03;4987951;28;20760;-72
2023/04/09 06:24:18;;;;;;;10.50;8.25;;;;;;;18.98;42.08;102394.59;4993450;28;20120;-69
2023/04/09 06:26:43;;;;;;;10.77;7.50;;;;;;;19.02;42.18;102391.63;4981849;28;20110;-70
2023/04/09 06:29:08;;;;;;;9.55;7.55;;;;;;;19.01;42.08;102394.41;4981907;28;20040;-70
2023/04/09 06:31:34;;;;;;;11.48;8.55;;;;;;;19.00;42.11;102397.97;4992607;28;20104;-71
2023/04/09 06:33:59;;;;;;;10.75;7.68;;;;;;;19.03;41.97;102395.16;4997639;28;20025;-69
2023/04/09 06:36:26;;;;;;;9.75;7.78;;;;;;;19.02;41.96;102390.78;4999863;28;20121;-68
2023/04/09 06:38:51;;;;;;;9.68;7.85;;;;;;;19.02;41.90;102396.06;4976509;28;20033;-70
2023/04/09 06:41:20;;;;;;;10.93;8.10;;;;;;;18.95;41.60;102386.84;4969906;28;20041;-72
2023/04/09 06:43:45;;;;;;;10.50;7.50;;;;;;;19.01;41.83;102400.53;4989378;28;20040;-69
2023/04/09 06:46:12;;;;;;;10.88;7.95;;;;;;;19.03;41.80;102403.06;4986744;28;20034;-72
2023/04/09 06:48:37;;;;;;;10.68;8.45;;;;;;;19.06;41.81;102402.88;5001470;28;20044;-70
2023/04/09 06:51:03;;;;;;;10.82;8.52;;;;;;;19.05;41.64;102397.69;4995175;28;20034;-68
2023/04/09 06:53:28;;;;;;;10.60;8.05;;;;;;;19.05;41.64;102406.47;4987769;28;20469;-68
2023/04/09 06:55:53;;;;;;;10.30;8.20;;;;;;;19.06;41.87;102409.94;5000020;28;20033;-69
2023/04/09 06:58:19;;;;;;;12.25;8.25;;;;;;;19.06;41.71;102410.81;5001070;28;20267;-68
2023/04/09 07:00:45;;;;;;;10.43;7.63;;;;;;;19.06;41.80;102412.59;4985285;28;20038;-67
2023/04/09 07:03:10;;;;;;;11.20;8.52;;;;;;;19.06;41.98;102412.59;4984894;28;20119;-67
2023/04/09 07:05:35;;;;;;;10.10;7.68;;;;;;;19.07;42.05;102414.28;5000980;28;20038;-69
2023/04/09 07:08:01;;;;;;;11.35;8.13;;;;;;;19.06;42.03;102408.16;4989531;28;20065;-68
2023/04/09 07:10:26;;;;;;;10.60;8.20;;;;;;;19.08;42.24;102406.28;4993547;28;20034;-70
2023/04/09 07:12:51;;;;;;;11.80;8.03;;;;;;;19.08;42.38;102411.56;4994388;28;20041;-70
2023/04/09 07:15:16;;;;;;;11.77;8.65;;;;;;;19.07;42.37;102404.56;5001913;28;20303;-71
2023/04/09 07:17:42;;;;;;;10.35;8.20;;;;;;;19.08;42.45;102405.44;5001731;28;20034;-69
2023/04/09 07:20:07;;;;;;;10.23;8.20;;;;;;;19.08;42.40;102402.78;4981194;28;20136;-68
2023/04/09 07:22:35;;;;;;;9.85;8.57;;;;;;;19.08;42.65;102410.72;4981787;28;20326;-69
2023/04/09 07:25:00;;;;;;;11.13;8.32;;;;;;;19.09;42.79;102415.03;4995828;28;20030;-72
2023/04/09 07:27:27;;;;;;;10.07;8.05;;;;;;;19.11;42.69;102408.75;4997281;28;20464;-69
2023/04/09 07:29:57;;;;;;;12.07;8.55;;;;;;;19.10;43.02;102417.59;4995415;28;20081;-70
2023/04/09 07:32:24;;;;;;;10.77;8.05;;;;;;;19.11;43.00;102419.31;4987232;28;20030;-69
2023/04/09 07:34:53;;;;;;;12.18;8.30;;;;;;;19.14;42.96;102415.63;4992576;28;20757;-70
2023/04/09 07:37:19;;;;;;;13.68;8.48;;;;;;;19.11;43.23;102416.66;4991475;28;20038;-70
2023/04/09 07:39:45;;;;;;;11.77;8.75;;;;;;;19.11;43.04;102413.19;4993900;28;20038;-71
2023/04/09 07:42:11;;;;;;;11.18;8.38;;;;;;;19.12;43.42;102415.72;4997986;28;20033;-69
2023/04/09 07:44:37;;;;;;;12.82;9.02;;;;;;;19.13;43.37;102420.06;4995384;28;20034;-70
2023/04/09 07:47:03;;;;;;;12.05;8.35;;;;;;;19.13;43.23;102409.47;4989855;28;20269;-69
2023/04/09 07:49:29;;;;;;;10.57;7.65;;;;;;;19.16;43.48;102422.50;4983183;28;20053;-68
2023/04/09 07:51:54;;;;;;;12.27;8.80;;;;;;;19.27;43.19;102415.75;4990494;28;20038;-67
2023/04/09 07:54:20;;;;;;;12.68;9.07;;;;;;;19.32;43.11;102409.22;4994033;28;20391;-67
2023/04/09 07:56:46;;;;;;;14.95;9.57;;;;;;;19.38;42.93;102416.75;4989026;28;20080;-67
2023/04/09 07:59:11;;;;;;;12.52;9.30;;;;;;;19.42;42.88;102416.56;4990318;28;20042;-67
2023/04/09 08:01:36;;;;;;;13.05;9.48;;;;;;;19.38;42.98;102414.13;4988137;28;20088;-67
2023/04/09 08:04:02;;;;;;;13.70;9.50;;;;;;;19.38;43.07;102413.28;5002758;28;20030;-66
2023/04/09 08:06:27;;;;;;;10.57;8.55;;;;;;;19.41;43.15;102415.72;4990215;28;20550;-67
2023/04/09 08:08:53;;;;;;;12.02;9.63;;;;;;;19.43;43.01;102411.19;4994657;28;20505;-70
2023/04/09 08:11:23;;;;;;;12.77;9.52;;;;;;;19.48;43.00;102413.56;4977194;28;20038;-69
2023/04/09 08:13:52;;;;;;;13.90;9.02;;;;;;;19.46;42.95;102408.34;4991628;28;20474;-69
2023/04/09 08:16:18;;;;;;;11.38;9.45;;;;;;;19.49;42.96;102409.97;4984601;28;20049;-67
2023/04/09 08:18:44;;;;;;;11.55;8.35;;;;;;;19.51;42.99;102411.56;4992596;28;20110;-67
2023/04/09 08:21:09;;;;;;;11.98;9.25;;;;;;;19.44;42.99;102406.75;4984286;28;20051;-68
2023/04/09 08:23:36;;;;;;;13.15;8.88;;;;;;;19.43;43.32;102413.84;4996083;28;20149;-66
2023/04/09 08:26:02;;;;;;;12.57;9.20;;;;;;;19.45;43.32;102417.22;4989181;28;20041;-69
2023/04/09 08:28:27;;;;;;;11.93;9.05;;;;;;;19.42;43.25;102412.13;4996259;28;20053;-68
2023/04/09 08:30:52;;;;;;;13.95;9.48;;;;;;;19.44;43.26;102415.53;4990553;28;20041;-70
2023/04/09 08:33:18;;;;;;;12.23;9.27;;;;;;;19.44;43.36;102417.31;4977254;28;20568;-67
2023/04/09 08:35:43;;;;;;;11.30;9.20;;;;;;;19.29;43.55;102396.19;4982790;28;20034;-69
2023/04/09 08:38:08;;;;;;;11.20;9.20;;;;;;;19.34;43.33;102406.47;5002053;28;20029;-69
2023/04/09 08:40:35;;;;;;;13.30;9.23;;;;;;;19.32;43.43;102400.44;5001774;28;20091;-73
2023/04/09 08:43:04;;;;;;;12.10;9.90;;;;;;;19.29;43.55;102401.47;4993460;28;20524;-70
2023/04/09 08:45:30;;;;;;;12.60;9.25;;;;;;;19.32;43.66;102403.91;4975050;28;20944;-72
2023/04/09 08:47:58;;;;;;;12.85;9.02;;;;;;;19.35;43.58;102402.88;4997290;28;20033;-67
2023/04/09 08:50:24;;;;;;;12.23;9.48;;;;;;;19.33;43.43;102400.34;4995455;28;20038;-71
2023/04/09 08:52:49;;;;;;;12.98;9.95;;;;;;;19.40;43.47;102403.44;5001642;28;20034;-71
2023/04/09 08:55:15;;;;;;;12.45;9.85;;;;;;;19.41;43.66;102402.50;4984305;28;20026;-71
2023/04/09 08:57:41;;;;;;;12.43;9.68;;;;;;;19.39;43.48;102397.31;4996592;28;20044;-70
2023/04/09 09:00:07;;;;;;;11.50;8.85;;;;;;;19.45;43.42;102403.16;4992177;28;20040;-70
2023/04/09 09:02:33;;;;;;;13.93;9.82;;;;;;;19.48;43.25;102389.75;5001516;28;20053;-69
2023/04/09 09:04:59;;;;;;;12.35;9.35;;;;;;;19.47;43.29;102395.97;4964930;28;20034;-71
2023/04/09 09:07:28;;;;;;;13.65;9.35;;;;;;;19.44;43.55;102409.38;4984218;28;20038;-70
2023/04/09 09:09:56;;;;;;;11.68;9.60;;;;;;;19.42;43.71;102403.34;4982192;28;20026;-71
2023/04/09 09:12:51;;;;;;;11.82;9.95;;;;;;;19.43;43.72;102403.25;4991116;28;20381;-72
2023/04/09 09:15:27;;;;;;;;;;;;;;;19.48;43.48;102400.34;4972722;28;20074;-74
2023/04/09 09:17:57;;;;;;;11.48;8.98;;;;;;;19.44;43.40;102397.03;4995540;28;20302;-73
2023/04/09 09:20:26;;;;;;;12.23;9.77;;;;;;;19.46;43.67;102397.78;4998114;28;20133;-72
2023/04/09 09:22:54;;;;;;;13.05;9.63;;;;;;;19.48;43.65;102406.47;4998734;28;20042;-73
2023/04/09 09:25:24;;;;;;;13.65;9.43;;;;;;;19.43;43.61;102405.91;4994404;28;20034;-72
2023/04/09 09:27:50;;;;;;;11.93;9.65;;;;;;;19.47;43.77;102402.13;4988586;28;20029;-69
2023/04/09 09:30:24;;;;;;;12.98;9.57;;;;;;;19.50;43.56;102398.44;4999553;28;20140;-69
2023/04/09 09:32:53;;;;;;;;;;;;;;;19.52;43.59;102386.81;4998071;28;20042;-66
2023/04/09 09:35:19;;;;;;;13.07;8.95;;;;;;;19.47;43.39;102385.41;4983797;28;19972;-69
2023/04/09 09:37:44;;;;;;;10.77;8.68;;;;;;;19.47;43.78;102388.03;4984552;28;20743;-72
2023/04/09 09:40:10;;;;;;;11.68;9.18;;;;;;;19.43;43.98;102382.09;4984544;28;20489;-69
2023/04/09 09:42:35;;;;;;;12.80;9.38;;;;;;;19.44;44.07;102388.25;4969565;28;20042;-72
2023/04/09 09:45:16;;;;;;;10.85;9.45;;;;;;;19.43;44.19;102384.75;4991697;28;20501;-74
2023/04/09 09:47:42;;;;;;;11.90;8.60;;;;;;;19.46;43.83;102386.38;4995913;28;20116;-74
2023/04/09 09:50:08;;;;;;;12.90;9.40;;;;;;;19.44;44.06;102369.72;4987857;28;20042;-72
2023/04/09 09:52:33;;;;;;;10.73;8.55;;;;;;;19.40;44.04;102369.91;4995571;28;20088;-70
2023/04/09 09:55:04;;;;;;;10.65;8.63;;;;;;;19.38;44.09;102363.03;5000687;28;20733;-69
2023/04/09 09:57:31;;;;;;;11.50;8.85;;;;;;;19.50;43.97;102369.34;4998189;28;20029;-70
2023/04/09 10:00:06;;;;;;;11.73;8.60;;;;;;;19.61;43.77;102368.66;4992567;28;20034;-70
2023/04/09 10:02:39;;;;;;;10.38;8.70;;;;;;;19.69;43.56;102366.38;4982897;28;20070;-67
2023/04/09 10:05:07;;;;;;;11.07;8.45;;;;;;;19.72;43.10;102350.31;4982541;28;20085;-68
2023/04/09 10:07:33;;;;;;;11.35;8.45;;;;;;;19.73;43.02;102360.78;4981999;28;20046;-68
2023/04/09 10:10:01;;;;;;;10.65;8.00;;;;;;;19.72;43.00;102363.53;4974976;28;20034;-70
2023/04/09 10:12:27;;;;;;;12.25;8.43;;;;;;;19.72;43.15;102356.44;4989731;28;20068;-71
2023/04/09 10:14:54;;;;;;;10.25;8.40;;;;;;;19.69;43.17;102361.09;4989165;28;20054;-71
2023/04/09 10:17:20;;;;;;;11.52;8.30;;;;;;;19.64;43.24;102361.38;4990315;28;20456;-71
2023/04/09 10:20:07;;;;;;;12.10;7.88;;;;;;;19.56;43.22;102348.66;4994243;28;20030;-69
2023/04/09 10:22:33;;;;;;;10.82;8.73;;;;;;;19.50;43.57;102349.06;4974622;28;20124;-68
2023/04/09 10:24:59;;;;;;;9.55;7.65;;;;;;;19.45;43.65;102353.78;4994672;28;20534;-67
2023/04/09 10:27:26;;;;;;;10.77;7.78;;;;;;;19.39;43.66;102339.16;4995903;28;20092;-68
2023/04/09 10:29:51;;;;;;;10.93;7.70;;;;;;;19.36;43.82;102335.88;4999175;28;20061;-68
2023/04/09 10:32:20;;;;;;;10.07;7.38;;;;;;;19.35;44.05;102335.00;4997362;28;20482;-70
2023/04/09 10:34:45;;;;;;;11.43;7.63;;;;;;;19.38;44.06;102336.63;4995369;28;20041;-65
2023/04/09 10:37:19;;;;;;;9.27;7.65;;;;;;;19.39;43.98;102335.66;4994385;28;20034;-66
2023/04/09 10:39:47;;;;;;;10.40;7.30;;;;;;;19.46;43.71;102330.84;4967092;28;20048;-67
2023/04/09 10:42:16;;;;;;;9.52;7.97;;;;;;;19.48;43.61;102323.66;4979051;28;20034;-68
2023/04/09 10:44:42;;;;;;;12.05;9.05;;;;;;;19.51;43.60;102328.75;4998765;28;20725;-67
2023/04/09 10:47:08;;;;;;;14.80;10.13;;;;;;;19.45;43.49;102313.28;5000364;28;20406;-68
2023/04/09 10:49:39;;;;;;;12.75;10.15;;;;;;;19.46;43.66;102320.28;4984354;28;20030;-67
2023/04/09 10:52:12;;;;;;;15.13;10.15;;;;;;;19.46;43.52;102320.28;4982226;28;20038;-66
2023/04/09 10:54:44;;;;;;;14.30;10.52;;;;;;;19.43;44.15;102320.47;4991029;28;20118;-69
2023/04/09 10:57:12;;;;;;;15.98;11.48;;;;;;;19.42;44.10;102321.41;4991801;28;20039;-71
2023/04/09 10:59:46;;;;;;;13.50;10.38;;;;;;;19.40;44.24;102314.41;4989879;28;20125;-69
2023/04/09 11:02:30;;;;;;;15.48;11.00;;;;;;;19.40;44.27;102314.41;4977823;28;20022;-70
2023/04/09 11:04:55;;;;;;;13.27;10.23;;;;;;;19.42;44.21;102309.00;4978625;28;20096;-67
2023/04/09 11:07:23;;;;;;;14.80;10.17;;;;;;;19.42;44.26;102302.88;4989071;28;20052;-70
2023/04/09 11:09:49;;;;;;;13.85;10.25;;;;;;;19.40;43.99;102298.53;5003123;28;20041;-69
2023/04/09 11:12:14;;;;;;;15.30;10.10;;;;;;;19.38;43.87;102296.97;4986228;28;20089;-68
2023/04/09 11:14:39;;;;;;;13.02;9.93;;;;;;;19.39;43.83;102293.34;4968801;28;20063;-69